メインページ
METAR-TAF:

METAR-TAF

空港 :

キング・ハーリド国際空港

リヤド, サウジアラビア

緯度: 24-56N, 経度: 046-43E, 海抜: 614m

現時点の気象観測

当レポートは52分前の05:00(UTC)に作成
の風 11kt
気温 19°C
湿度 26%
気圧 1015 hPa
視程10km以上
1,500メートル以下は雲なし、積乱雲なし

METAR: OERK 210500Z 17011KT CAVOK 19/M01 Q1015 NOSIG

時間: 08:52 (05:52 UTC)

予報

当レポートは52分前の05:00(UTC)に作成
予報は21日の 06時(UTC)から 22日の 12時(UTC)まで有効
南/南東の風 8kt、最大18ktの突風を伴う
視程: 6000m
高度4000ftの雲はほとんどない
高度8000ftの雲は散在している
21日の 06時(UTC)から 21日の 18時(UTC)まで一時的に
視程: 3000m
広範な塵, 風塵
確率 30% :
21日の 06時(UTC)から 21日の 11時(UTC)まで一時的に
視程: 0800m
確率 40% :
21日の 11時(UTC)から 21日の 15時(UTC)まで一時的に
変向風 20kt
高度3500ftの雲はほとんどない, 積乱雲.
高度3000ftの千切れ雲あり
激しい雷雨, 雨
確率 30% :
21日の 17時(UTC)から 21日の 21時(UTC)まで一時的に
視程: 1500m

TAF: OERK 210500Z 2106/2212 16008G18KT 6000 FEW040 SCT080 TEMPO 2106/2118 3000 DU BLDU PROB30 TEMPO 2106/2111 0800 PROB40 TEMPO 2111/2115 VRB20KT TSRA FEW035CB BKN030 PROB30 TEMPO 2117/2121 1500

4,000以上の空港の気象観測と天気予報(METAR報とTAF報)

利用可能な観測所は地図上に黄色い丸と赤い丸で示す。

丸の上にカーソルを重ねると観測所名を参照できる。

次にクリックすると気象観測と天気予報を参照できる。

マップの切り替え:黒色「×」印の緑ボタンをクリックして拡大、「-」印の緑ボタンをクリックして縮小、緑色の三角印をクリックして隣りの地図に切り替え


METAR-TAF: